sensor_id;sensor_type;location;lat;lon;timestamp;pressure;altitude;pressure_sealevel;temperature;humidity
7962;BME280;4026;43.652;24.906;2023-03-07T00:00:06;98395.19;;;5.58;71.56
7962;BME280;4026;43.652;24.906;2023-03-07T00:02:33;98395.84;;;5.61;71.81
7962;BME280;4026;43.652;24.906;2023-03-07T00:05:00;98392.38;;;5.62;71.73
7962;BME280;4026;43.652;24.906;2023-03-07T00:07:27;98391.78;;;5.72;71.99
7962;BME280;4026;43.652;24.906;2023-03-07T00:09:54;98393.59;;;5.70;71.59
7962;BME280;4026;43.652;24.906;2023-03-07T00:12:21;98397.16;;;5.67;72.10
7962;BME280;4026;43.652;24.906;2023-03-07T00:14:49;98394.72;;;5.65;73.16
7962;BME280;4026;43.652;24.906;2023-03-07T00:17:16;98400.72;;;5.64;73.94
7962;BME280;4026;43.652;24.906;2023-03-07T00:19:43;98396.28;;;5.81;72.22
7962;BME280;4026;43.652;24.906;2023-03-07T00:22:10;98395.56;;;6.19;70.44
7962;BME280;4026;43.652;24.906;2023-03-07T00:24:37;98389.06;;;6.53;68.37
7962;BME280;4026;43.652;24.906;2023-03-07T00:27:04;98389.13;;;6.77;68.32
7962;BME280;4026;43.652;24.906;2023-03-07T00:29:31;98385.97;;;6.99;65.92
7962;BME280;4026;43.652;24.906;2023-03-07T00:31:59;98377.56;;;7.22;65.44
7962;BME280;4026;43.652;24.906;2023-03-07T00:34:26;98376.31;;;7.28;64.65
7962;BME280;4026;43.652;24.906;2023-03-07T00:36:53;98368.53;;;7.42;64.04
7962;BME280;4026;43.652;24.906;2023-03-07T00:39:20;98365.66;;;7.23;65.07
7962;BME280;4026;43.652;24.906;2023-03-07T00:41:46;98358.31;;;7.31;66.87
7962;BME280;4026;43.652;24.906;2023-03-07T00:44:13;98361.16;;;7.51;65.36
7962;BME280;4026;43.652;24.906;2023-03-07T00:46:40;98353.94;;;7.33;65.52
7962;BME280;4026;43.652;24.906;2023-03-07T00:49:08;98349.47;;;7.24;65.98
7962;BME280;4026;43.652;24.906;2023-03-07T00:51:35;98352.28;;;7.32;65.09
7962;BME280;4026;43.652;24.906;2023-03-07T00:54:02;98343.75;;;7.33;65.33
7962;BME280;4026;43.652;24.906;2023-03-07T00:56:29;98345.09;;;7.26;65.79
7962;BME280;4026;43.652;24.906;2023-03-07T00:58:56;98338.66;;;7.33;66.23
7962;BME280;4026;43.652;24.906;2023-03-07T01:01:24;98336.06;;;7.22;67.05
7962;BME280;4026;43.652;24.906;2023-03-07T01:03:51;98338.13;;;7.17;66.87
7962;BME280;4026;43.652;24.906;2023-03-07T01:06:22;98331.66;;;7.00;67.83
7962;BME280;4026;43.652;24.906;2023-03-07T01:08:49;98332.09;;;6.94;68.15
7962;BME280;4026;43.652;24.906;2023-03-07T01:11:16;98322.94;;;6.91;69.31
7962;BME280;4026;43.652;24.906;2023-03-07T01:13:43;98334.34;;;6.86;68.91
7962;BME280;4026;43.652;24.906;2023-03-07T01:16:13;98328.75;;;6.93;69.68
7962;BME280;4026;43.652;24.906;2023-03-07T01:18:41;98323.50;;;6.84;70.31
7962;BME280;4026;43.652;24.906;2023-03-07T01:21:12;98321.56;;;6.87;69.87
7962;BME280;4026;43.652;24.906;2023-03-07T01:23:41;98327.81;;;6.94;69.74
7962;BME280;4026;43.652;24.906;2023-03-07T01:26:11;98330.28;;;6.83;70.94
7962;BME280;4026;43.652;24.906;2023-03-07T01:28:38;98326.84;;;6.84;70.38
7962;BME280;4026;43.652;24.906;2023-03-07T01:31:04;98327.22;;;6.91;69.92
7962;BME280;4026;43.652;24.906;2023-03-07T01:33:31;98326.63;;;6.87;69.17
7962;BME280;4026;43.652;24.906;2023-03-07T01:35:58;98322.19;;;6.78;71.33
7962;BME280;4026;43.652;24.906;2023-03-07T01:38:25;98318.56;;;6.69;72.01
7962;BME280;4026;43.652;24.906;2023-03-07T01:40:54;98314.28;;;6.70;71.31
7962;BME280;4026;43.652;24.906;2023-03-07T01:43:24;98315.38;;;6.66;71.67
7962;BME280;4026;43.652;24.906;2023-03-07T01:46:25;98309.41;;;6.67;72.04
7962;BME280;4026;43.652;24.906;2023-03-07T01:48:58;98308.47;;;6.68;72.21
7962;BME280;4026;43.652;24.906;2023-03-07T01:51:27;98306.88;;;6.67;72.13
7962;BME280;4026;43.652;24.906;2023-03-07T01:53:55;98297.91;;;6.74;72.63
7962;BME280;4026;43.652;24.906;2023-03-07T01:56:24;98299.13;;;6.68;72.96
7962;BME280;4026;43.652;24.906;2023-03-07T01:58:52;98303.69;;;6.76;73.00
7962;BME280;4026;43.652;24.906;2023-03-07T02:01:20;98300.22;;;6.77;73.01
7962;BME280;4026;43.652;24.906;2023-03-07T02:03:51;98302.25;;;6.85;73.15
7962;BME280;4026;43.652;24.906;2023-03-07T02:06:19;98297.16;;;6.85;73.47
7962;BME280;4026;43.652;24.906;2023-03-07T02:08:47;98303.25;;;6.82;74.89
7962;BME280;4026;43.652;24.906;2023-03-07T02:11:15;98296.81;;;6.89;74.53
7962;BME280;4026;43.652;24.906;2023-03-07T02:13:44;98301.59;;;6.94;73.98
7962;BME280;4026;43.652;24.906;2023-03-07T02:16:11;98304.25;;;6.92;73.93
7962;BME280;4026;43.652;24.906;2023-03-07T02:18:43;98304.44;;;6.89;73.78
7962;BME280;4026;43.652;24.906;2023-03-07T02:21:17;98309.34;;;6.92;74.34
7962;BME280;4026;43.652;24.906;2023-03-07T02:23:50;98304.25;;;6.92;74.71
7962;BME280;4026;43.652;24.906;2023-03-07T02:26:23;98307.50;;;6.94;74.88
7962;BME280;4026;43.652;24.906;2023-03-07T02:28:54;98310.03;;;6.94;74.43
7962;BME280;4026;43.652;24.906;2023-03-07T02:31:21;98311.09;;;7.16;73.93
7962;BME280;4026;43.652;24.906;2023-03-07T02:33:48;98317.00;;;7.03;74.59
7962;BME280;4026;43.652;24.906;2023-03-07T02:36:19;98317.00;;;7.03;74.27
7962;BME280;4026;43.652;24.906;2023-03-07T02:38:49;98319.97;;;6.97;75.11
7962;BME280;4026;43.652;24.906;2023-03-07T02:41:20;98312.47;;;6.96;75.23
7962;BME280;4026;43.652;24.906;2023-03-07T02:43:47;98321.44;;;6.89;75.79
7962;BME280;4026;43.652;24.906;2023-03-07T02:46:16;98317.00;;;6.79;76.29
7962;BME280;4026;43.652;24.906;2023-03-07T02:48:44;98318.09;;;6.88;75.67
7962;BME280;4026;43.652;24.906;2023-03-07T02:51:11;98314.22;;;6.83;75.64
7962;BME280;4026;43.652;24.906;2023-03-07T02:53:37;98318.94;;;6.76;75.69
7962;BME280;4026;43.652;24.906;2023-03-07T02:56:05;98315.91;;;6.71;75.87
7962;BME280;4026;43.652;24.906;2023-03-07T02:58:32;98318.84;;;6.65;76.21
7962;BME280;4026;43.652;24.906;2023-03-07T03:00:59;98309.84;;;6.61;76.45
7962;BME280;4026;43.652;24.906;2023-03-07T03:03:28;98323.44;;;6.60;76.66
7962;BME280;4026;43.652;24.906;2023-03-07T03:05:55;98318.78;;;6.53;76.93
7962;BME280;4026;43.652;24.906;2023-03-07T03:08:22;98321.94;;;6.44;77.55
7962;BME280;4026;43.652;24.906;2023-03-07T03:10:51;98314.72;;;6.51;77.31
7962;BME280;4026;43.652;24.906;2023-03-07T03:13:19;98323.84;;;6.53;77.13
7962;BME280;4026;43.652;24.906;2023-03-07T03:15:46;98312.69;;;6.56;76.79
7962;BME280;4026;43.652;24.906;2023-03-07T03:18:13;98317.97;;;6.53;77.70
7962;BME280;4026;43.652;24.906;2023-03-07T03:20:41;98318.78;;;6.53;78.34
7962;BME280;4026;43.652;24.906;2023-03-07T03:23:08;98317.72;;;6.69;78.76
7962;BME280;4026;43.652;24.906;2023-03-07T03:25:35;98321.19;;;6.68;78.21
7962;BME280;4026;43.652;24.906;2023-03-07T03:28:02;98323.50;;;6.71;79.10
7962;BME280;4026;43.652;24.906;2023-03-07T03:30:29;98317.50;;;6.72;78.45
7962;BME280;4026;43.652;24.906;2023-03-07T03:32:57;98315.47;;;6.77;77.99
7962;BME280;4026;43.652;24.906;2023-03-07T03:35:24;98322.78;;;6.82;78.36
7962;BME280;4026;43.652;24.906;2023-03-07T03:37:52;98326.06;;;6.71;78.81
7962;BME280;4026;43.652;24.906;2023-03-07T03:40:19;98333.59;;;6.72;78.88
7962;BME280;4026;43.652;24.906;2023-03-07T03:42:46;98329.31;;;6.73;78.89
7962;BME280;4026;43.652;24.906;2023-03-07T03:45:15;98331.56;;;6.65;80.27
7962;BME280;4026;43.652;24.906;2023-03-07T03:47:42;98319.25;;;6.71;79.66
7962;BME280;4026;43.652;24.906;2023-03-07T03:50:09;98308.06;;;6.74;79.67
7962;BME280;4026;43.652;24.906;2023-03-07T03:52:36;98308.03;;;6.87;78.41
7962;BME280;4026;43.652;24.906;2023-03-07T03:55:05;98312.44;;;6.72;79.19
7962;BME280;4026;43.652;24.906;2023-03-07T03:57:32;98315.03;;;6.83;79.15
7962;BME280;4026;43.652;24.906;2023-03-07T03:59:59;98315.97;;;6.82;78.06
7962;BME280;4026;43.652;24.906;2023-03-07T04:02:26;98311.56;;;6.97;78.44
7962;BME280;4026;43.652;24.906;2023-03-07T04:04:55;98321.56;;;7.11;79.50
7962;BME280;4026;43.652;24.906;2023-03-07T04:07:21;98317.00;;;7.03;78.97
7962;BME280;4026;43.652;24.906;2023-03-07T04:09:49;98315.81;;;6.96;78.71
7962;BME280;4026;43.652;24.906;2023-03-07T04:12:17;98322.09;;;7.03;78.37
7962;BME280;4026;43.652;24.906;2023-03-07T04:14:44;98311.09;;;7.16;76.98
7962;BME280;4026;43.652;24.906;2023-03-07T04:17:11;98311.22;;;7.25;76.43
7962;BME280;4026;43.652;24.906;2023-03-07T04:19:38;98312.25;;;7.23;76.64
7962;BME280;4026;43.652;24.906;2023-03-07T04:22:05;98316.78;;;7.07;77.01
7962;BME280;4026;43.652;24.906;2023-03-07T04:24:32;98320.84;;;7.09;78.06
7962;BME280;4026;43.652;24.906;2023-03-07T04:26:59;98318.22;;;7.11;78.24
7962;BME280;4026;43.652;24.906;2023-03-07T04:29:27;98317.94;;;7.02;78.53
7962;BME280;4026;43.652;24.906;2023-03-07T04:31:55;98322.53;;;6.97;78.86
7962;BME280;4026;43.652;24.906;2023-03-07T04:34:22;98330.66;;;7.02;78.90
7962;BME280;4026;43.652;24.906;2023-03-07T04:36:48;98328.81;;;7.05;79.25
7962;BME280;4026;43.652;24.906;2023-03-07T04:39:15;98322.94;;;7.04;79.24
7962;BME280;4026;43.652;24.906;2023-03-07T04:41:43;98321.88;;;7.07;79.36
7962;BME280;4026;43.652;24.906;2023-03-07T04:44:10;98333.63;;;7.20;78.77
7962;BME280;4026;43.652;24.906;2023-03-07T04:46:38;98329.56;;;7.18;78.24
7962;BME280;4026;43.652;24.906;2023-03-07T04:49:05;98334.22;;;7.24;78.42
7962;BME280;4026;43.652;24.906;2023-03-07T04:51:32;98323.22;;;7.23;77.75
7962;BME280;4026;43.652;24.906;2023-03-07T04:53:58;98323.44;;;7.20;77.46
7962;BME280;4026;43.652;24.906;2023-03-07T04:56:25;98324.97;;;6.99;79.62
7962;BME280;4026;43.652;24.906;2023-03-07T04:58:52;98327.53;;;6.86;79.76
7962;BME280;4026;43.652;24.906;2023-03-07T05:01:19;98334.13;;;6.89;79.76
7962;BME280;4026;43.652;24.906;2023-03-07T05:03:47;98332.91;;;6.94;79.83
7962;BME280;4026;43.652;24.906;2023-03-07T05:06:14;98331.34;;;7.05;80.00
7962;BME280;4026;43.652;24.906;2023-03-07T05:08:41;98336.28;;;7.19;78.96
7962;BME280;4026;43.652;24.906;2023-03-07T05:11:08;98341.19;;;7.09;79.13
7962;BME280;4026;43.652;24.906;2023-03-07T05:13:35;98344.53;;;7.10;79.46
7962;BME280;4026;43.652;24.906;2023-03-07T05:16:02;98344.53;;;7.10;79.28
7962;BME280;4026;43.652;24.906;2023-03-07T05:18:29;98343.13;;;7.06;79.45
7962;BME280;4026;43.652;24.906;2023-03-07T05:20:57;98345.81;;;7.04;79.83
7962;BME280;4026;43.652;24.906;2023-03-07T05:23:25;98344.28;;;7.01;79.58
7962;BME280;4026;43.652;24.906;2023-03-07T05:25:52;98348.34;;;7.04;79.29
7962;BME280;4026;43.652;24.906;2023-03-07T05:28:19;98349.16;;;7.05;79.12
7962;BME280;4026;43.652;24.906;2023-03-07T05:30:46;98352.38;;;7.07;79.53
7962;BME280;4026;43.652;24.906;2023-03-07T05:33:14;98354.34;;;7.27;79.46
7962;BME280;4026;43.652;24.906;2023-03-07T05:35:41;98363.88;;;7.36;78.50
7962;BME280;4026;43.652;24.906;2023-03-07T05:38:09;98359.53;;;7.49;78.50
7962;BME280;4026;43.652;24.906;2023-03-07T05:40:36;98358.78;;;7.60;78.46
7962;BME280;4026;43.652;24.906;2023-03-07T05:43:03;98366.75;;;7.67;77.90
7962;BME280;4026;43.652;24.906;2023-03-07T05:45:30;98356.75;;;7.77;76.89
7962;BME280;4026;43.652;24.906;2023-03-07T05:47:57;98362.09;;;7.96;75.73
7962;BME280;4026;43.652;24.906;2023-03-07T05:50:24;98366.44;;;8.07;76.06
7962;BME280;4026;43.652;24.906;2023-03-07T05:52:51;98372.47;;;8.28;75.31
7962;BME280;4026;43.652;24.906;2023-03-07T05:55:20;98373.78;;;8.45;74.73
7962;BME280;4026;43.652;24.906;2023-03-07T05:57:46;98374.38;;;8.71;73.93
7962;BME280;4026;43.652;24.906;2023-03-07T06:00:14;98369.50;;;8.91;72.41
7962;BME280;4026;43.652;24.906;2023-03-07T06:02:41;98373.50;;;9.16;70.65
7962;BME280;4026;43.652;24.906;2023-03-07T06:05:08;98369.16;;;9.39;70.84
7962;BME280;4026;43.652;24.906;2023-03-07T06:07:35;98383.03;;;9.57;70.04
7962;BME280;4026;43.652;24.906;2023-03-07T06:10:03;98373.09;;;9.96;70.68
7962;BME280;4026;43.652;24.906;2023-03-07T06:12:31;98367.69;;;10.31;67.29
7962;BME280;4026;43.652;24.906;2023-03-07T06:14:58;98385.88;;;10.69;65.74
7962;BME280;4026;43.652;24.906;2023-03-07T06:17:25;98379.28;;;11.06;65.79
7962;BME280;4026;43.652;24.906;2023-03-07T06:19:52;98376.50;;;11.58;68.36
7962;BME280;4026;43.652;24.906;2023-03-07T06:22:18;98378.50;;;12.13;64.32
7962;BME280;4026;43.652;24.906;2023-03-07T06:24:45;98384.28;;;12.62;61.98
7962;BME280;4026;43.652;24.906;2023-03-07T06:27:13;98391.34;;;13.15;60.87
7962;BME280;4026;43.652;24.906;2023-03-07T06:29:41;98385.38;;;13.60;59.19
7962;BME280;4026;43.652;24.906;2023-03-07T06:32:09;98388.28;;;14.01;57.10
7962;BME280;4026;43.652;24.906;2023-03-07T06:34:36;98393.63;;;14.34;57.82
7962;BME280;4026;43.652;24.906;2023-03-07T06:37:03;98396.44;;;14.75;54.46
7962;BME280;4026;43.652;24.906;2023-03-07T06:39:30;98392.00;;;14.85;53.09
7962;BME280;4026;43.652;24.906;2023-03-07T06:41:57;98392.03;;;14.59;51.58
7962;BME280;4026;43.652;24.906;2023-03-07T06:44:24;98398.88;;;14.76;51.30
7962;BME280;4026;43.652;24.906;2023-03-07T06:46:52;98401.41;;;15.10;50.22
7962;BME280;4026;43.652;24.906;2023-03-07T06:49:19;98401.13;;;15.30;51.72
7962;BME280;4026;43.652;24.906;2023-03-07T06:51:46;98402.94;;;14.95;51.25
7962;BME280;4026;43.652;24.906;2023-03-07T06:54:12;98397.88;;;15.11;50.19
7962;BME280;4026;43.652;24.906;2023-03-07T06:56:39;98401.63;;;15.33;51.53
7962;BME280;4026;43.652;24.906;2023-03-07T06:59:06;98407.34;;;15.70;49.34
7962;BME280;4026;43.652;24.906;2023-03-07T07:01:33;98406.38;;;16.12;48.90
7962;BME280;4026;43.652;24.906;2023-03-07T07:04:02;98405.41;;;16.04;49.88
7962;BME280;4026;43.652;24.906;2023-03-07T07:06:29;98408.59;;;16.23;47.94
7962;BME280;4026;43.652;24.906;2023-03-07T07:08:57;98407.25;;;16.60;47.34
7962;BME280;4026;43.652;24.906;2023-03-07T07:11:24;98410.91;;;16.73;47.18
7962;BME280;4026;43.652;24.906;2023-03-07T07:13:51;98415.75;;;16.68;48.06
7962;BME280;4026;43.652;24.906;2023-03-07T07:16:18;98419.00;;;16.62;47.44
7962;BME280;4026;43.652;24.906;2023-03-07T07:18:45;98418.38;;;16.52;49.44
7962;BME280;4026;43.652;24.906;2023-03-07T07:21:14;98417.69;;;17.22;48.00
7962;BME280;4026;43.652;24.906;2023-03-07T07:23:40;98414.66;;;17.41;48.27
7962;BME280;4026;43.652;24.906;2023-03-07T07:26:07;98416.28;;;17.42;45.34
7962;BME280;4026;43.652;24.906;2023-03-07T07:28:34;98417.13;;;17.35;47.21
7962;BME280;4026;43.652;24.906;2023-03-07T07:31:01;98409.44;;;17.96;47.55
7962;BME280;4026;43.652;24.906;2023-03-07T07:33:29;98410.59;;;18.46;44.35
7962;BME280;4026;43.652;24.906;2023-03-07T07:35:56;98410.69;;;18.38;45.24
7962;BME280;4026;43.652;24.906;2023-03-07T07:38:24;98413.47;;;18.36;43.98
7962;BME280;4026;43.652;24.906;2023-03-07T07:40:51;98412.09;;;18.25;44.88
7962;BME280;4026;43.652;24.906;2023-03-07T07:43:18;98413.16;;;18.16;45.27
7962;BME280;4026;43.652;24.906;2023-03-07T07:45:45;98408.88;;;18.23;45.27
7962;BME280;4026;43.652;24.906;2023-03-07T07:48:11;98414.97;;;18.60;43.68
7962;BME280;4026;43.652;24.906;2023-03-07T07:50:38;98418.47;;;18.97;45.45
7962;BME280;4026;43.652;24.906;2023-03-07T07:53:05;98416.69;;;19.34;45.12
7962;BME280;4026;43.652;24.906;2023-03-07T07:55:33;98421.38;;;18.35;43.49
7962;BME280;4026;43.652;24.906;2023-03-07T07:58:00;98416.91;;;19.17;45.35
7962;BME280;4026;43.652;24.906;2023-03-07T08:00:27;98409.88;;;18.67;43.65
7962;BME280;4026;43.652;24.906;2023-03-07T08:02:54;98409.25;;;19.09;43.07
7962;BME280;4026;43.652;24.906;2023-03-07T08:05:21;98418.38;;;18.75;43.68
7962;BME280;4026;43.652;24.906;2023-03-07T08:07:48;98417.75;;;19.39;43.05
7962;BME280;4026;43.652;24.906;2023-03-07T08:10:16;98418.00;;;18.49;43.39
7962;BME280;4026;43.652;24.906;2023-03-07T08:12:47;98419.53;;;18.88;45.37
7962;BME280;4026;43.652;24.906;2023-03-07T08:15:16;98418.13;;;18.70;43.40
7962;BME280;4026;43.652;24.906;2023-03-07T08:17:44;98415.63;;;17.40;45.28
7962;BME280;4026;43.652;24.906;2023-03-07T08:20:11;98429.81;;;17.45;45.83
7962;BME280;4026;43.652;24.906;2023-03-07T08:22:38;98435.44;;;17.25;45.25
7962;BME280;4026;43.652;24.906;2023-03-07T08:25:06;98429.03;;;17.67;45.47
7962;BME280;4026;43.652;24.906;2023-03-07T08:27:34;98430.25;;;17.79;46.37
7962;BME280;4026;43.652;24.906;2023-03-07T08:30:02;98426.53;;;17.82;45.70
7962;BME280;4026;43.652;24.906;2023-03-07T08:32:29;98425.94;;;17.72;46.08
7962;BME280;4026;43.652;24.906;2023-03-07T08:34:56;98429.34;;;17.95;46.70
7962;BME280;4026;43.652;24.906;2023-03-07T08:37:23;98423.09;;;18.27;45.68
7962;BME280;4026;43.652;24.906;2023-03-07T08:39:50;98413.19;;;18.46;46.03
7962;BME280;4026;43.652;24.906;2023-03-07T08:42:16;98419.88;;;18.55;45.95
7962;BME280;4026;43.652;24.906;2023-03-07T08:44:43;98421.13;;;19.04;44.86
7962;BME280;4026;43.652;24.906;2023-03-07T08:47:11;98418.78;;;19.45;42.76
7962;BME280;4026;43.652;24.906;2023-03-07T08:49:38;98415.81;;;19.27;43.67
7962;BME280;4026;43.652;24.906;2023-03-07T08:52:05;98424.22;;;19.29;42.50
7962;BME280;4026;43.652;24.906;2023-03-07T08:54:32;98415.22;;;20.10;42.72
7962;BME280;4026;43.652;24.906;2023-03-07T08:56:59;98424.78;;;20.38;41.69
7962;BME280;4026;43.652;24.906;2023-03-07T08:59:26;98422.19;;;20.10;42.42
7962;BME280;4026;43.652;24.906;2023-03-07T09:01:54;98429.16;;;19.23;43.78
7962;BME280;4026;43.652;24.906;2023-03-07T09:04:23;98422.41;;;19.65;42.88
7962;BME280;4026;43.652;24.906;2023-03-07T09:06:50;98426.56;;;20.09;43.43
7962;BME280;4026;43.652;24.906;2023-03-07T09:09:17;98426.41;;;20.39;43.68
7962;BME280;4026;43.652;24.906;2023-03-07T09:11:44;98421.88;;;20.20;41.54
7962;BME280;4026;43.652;24.906;2023-03-07T09:14:11;98420.00;;;19.85;42.28
7962;BME280;4026;43.652;24.906;2023-03-07T09:16:37;98418.78;;;19.45;43.15
7962;BME280;4026;43.652;24.906;2023-03-07T09:19:04;98425.34;;;20.05;42.42
7962;BME280;4026;43.652;24.906;2023-03-07T09:21:33;98425.91;;;20.92;40.37
7962;BME280;4026;43.652;24.906;2023-03-07T09:24:00;98411.75;;;20.94;41.57
7962;BME280;4026;43.652;24.906;2023-03-07T09:26:26;98409.44;;;20.43;43.84
7962;BME280;4026;43.652;24.906;2023-03-07T09:28:53;98410.38;;;20.57;43.78
7962;BME280;4026;43.652;24.906;2023-03-07T09:31:20;98408.44;;;19.88;41.82
7962;BME280;4026;43.652;24.906;2023-03-07T09:33:47;98404.97;;;20.02;41.84
7962;BME280;4026;43.652;24.906;2023-03-07T09:36:15;98409.81;;;20.68;40.64
7962;BME280;4026;43.652;24.906;2023-03-07T09:38:43;98410.78;;;19.83;41.21
7962;BME280;4026;43.652;24.906;2023-03-07T09:41:25;98407.63;;;19.44;42.50
7962;BME280;4026;43.652;24.906;2023-03-07T09:44:02;98413.56;;;19.60;42.54
7962;BME280;4026;43.652;24.906;2023-03-07T09:46:44;98414.47;;;19.95;41.29
7962;BME280;4026;43.652;24.906;2023-03-07T09:49:17;98414.44;;;20.73;41.38
7962;BME280;4026;43.652;24.906;2023-03-07T09:51:45;98411.94;;;20.99;39.78
7962;BME280;4026;43.652;24.906;2023-03-07T09:54:17;98406.75;;;20.99;41.06
7962;BME280;4026;43.652;24.906;2023-03-07T09:56:47;98410.13;;;20.93;40.35
7962;BME280;4026;43.652;24.906;2023-03-07T09:59:17;98404.31;;;20.91;40.05
7962;BME280;4026;43.652;24.906;2023-03-07T10:01:49;98403.75;;;21.02;40.15
7962;BME280;4026;43.652;24.906;2023-03-07T10:04:21;98404.38;;;21.05;41.38
7962;BME280;4026;43.652;24.906;2023-03-07T10:06:53;98399.75;;;21.95;38.69
7962;BME280;4026;43.652;24.906;2023-03-07T10:09:24;98390.09;;;21.48;38.46
7962;BME280;4026;43.652;24.906;2023-03-07T10:12:03;98400.69;;;21.40;40.50
7962;BME280;4026;43.652;24.906;2023-03-07T10:14:53;98391.22;;;21.13;39.02
7962;BME280;4026;43.652;24.906;2023-03-07T10:17:37;98387.25;;;20.69;38.84
7962;BME280;4026;43.652;24.906;2023-03-07T10:20:13;98383.63;;;21.31;38.64
7962;BME280;4026;43.652;24.906;2023-03-07T10:22:50;98377.59;;;21.11;38.12
7962;BME280;4026;43.652;24.906;2023-03-07T10:25:23;98368.50;;;21.81;40.39
7962;BME280;4026;43.652;24.906;2023-03-07T10:27:53;98369.31;;;21.75;39.45
7962;BME280;4026;43.652;24.906;2023-03-07T10:30:24;98368.38;;;21.01;40.00
7962;BME280;4026;43.652;24.906;2023-03-07T10:32:54;98367.91;;;20.78;38.80
7962;BME280;4026;43.652;24.906;2023-03-07T10:35:30;98365.38;;;20.56;39.86
7962;BME280;4026;43.652;24.906;2023-03-07T10:38:03;98360.94;;;21.73;40.17
7962;BME280;4026;43.652;24.906;2023-03-07T10:40:41;98360.03;;;22.46;38.33
7962;BME280;4026;43.652;24.906;2023-03-07T10:43:14;98363.44;;;21.27;39.23
7962;BME280;4026;43.652;24.906;2023-03-07T10:45:46;98361.31;;;21.57;38.97
7962;BME280;4026;43.652;24.906;2023-03-07T10:48:17;98353.69;;;22.28;38.80
7962;BME280;4026;43.652;24.906;2023-03-07T10:50:48;98344.06;;;21.96;37.34
7962;BME280;4026;43.652;24.906;2023-03-07T10:53:21;98344.69;;;21.44;39.77
7962;BME280;4026;43.652;24.906;2023-03-07T10:55:51;98344.59;;;21.11;38.45
7962;BME280;4026;43.652;24.906;2023-03-07T10:58:33;98342.88;;;21.52;38.82
7962;BME280;4026;43.652;24.906;2023-03-07T11:01:09;98340.06;;;21.33;40.16
7962;BME280;4026;43.652;24.906;2023-03-07T11:03:44;98335.69;;;21.80;39.54
7962;BME280;4026;43.652;24.906;2023-03-07T11:06:31;98331.13;;;22.54;38.17
7962;BME280;4026;43.652;24.906;2023-03-07T11:09:17;98325.47;;;21.92;38.71
7962;BME280;4026;43.652;24.906;2023-03-07T11:11:53;98319.69;;;21.70;37.85
7962;BME280;4026;43.652;24.906;2023-03-07T11:14:21;98320.09;;;21.54;38.71
7962;BME280;4026;43.652;24.906;2023-03-07T11:16:51;98315.28;;;21.37;38.33
7962;BME280;4026;43.652;24.906;2023-03-07T11:19:39;98313.78;;;21.01;38.99
7962;BME280;4026;43.652;24.906;2023-03-07T11:22:17;98317.50;;;20.31;40.58
7962;BME280;4026;43.652;24.906;2023-03-07T11:24:52;98314.41;;;21.17;39.44
7962;BME280;4026;43.652;24.906;2023-03-07T11:27:31;98306.88;;;21.48;38.31
7962;BME280;4026;43.652;24.906;2023-03-07T11:30:26;98300.84;;;21.81;39.18
7962;BME280;4026;43.652;24.906;2023-03-07T11:33:07;98293.25;;;21.86;39.96
7962;BME280;4026;43.652;24.906;2023-03-07T11:35:57;98289.97;;;20.78;38.57
7962;BME280;4026;43.652;24.906;2023-03-07T11:38:33;98289.59;;;20.94;38.97
7962;BME280;4026;43.652;24.906;2023-03-07T11:41:04;98281.25;;;21.32;39.26
7962;BME280;4026;43.652;24.906;2023-03-07T11:43:49;98287.50;;;20.63;38.82
7962;BME280;4026;43.652;24.906;2023-03-07T11:46:29;98279.22;;;21.14;38.99
7962;BME280;4026;43.652;24.906;2023-03-07T11:49:10;98275.84;;;21.34;40.70
7962;BME280;4026;43.652;24.906;2023-03-07T11:51:51;98271.66;;;21.39;38.67
7962;BME280;4026;43.652;24.906;2023-03-07T11:54:24;98268.94;;;20.73;38.29
7962;BME280;4026;43.652;24.906;2023-03-07T11:57:02;98266.63;;;21.11;38.25
7962;BME280;4026;43.652;24.906;2023-03-07T11:59:45;98273.53;;;20.71;38.02
7962;BME280;4026;43.652;24.906;2023-03-07T12:02:37;98258.72;;;20.65;39.05
7962;BME280;4026;43.652;24.906;2023-03-07T12:08:19;98261.59;;;20.83;40.33
7962;BME280;4026;43.652;24.906;2023-03-07T12:10:58;98249.22;;;20.98;38.53
7962;BME280;4026;43.652;24.906;2023-03-07T12:13:37;98253.66;;;21.64;38.52
7962;BME280;4026;43.652;24.906;2023-03-07T12:16:14;98240.84;;;21.10;37.89
7962;BME280;4026;43.652;24.906;2023-03-07T12:19:11;98249.59;;;21.88;38.46
7962;BME280;4026;43.652;24.906;2023-03-07T12:22:03;98246.03;;;21.76;37.94
7962;BME280;4026;43.652;24.906;2023-03-07T12:24:36;98249.66;;;21.62;40.03
7962;BME280;4026;43.652;24.906;2023-03-07T12:27:10;98237.25;;;21.51;36.09
7962;BME280;4026;43.652;24.906;2023-03-07T12:29:44;98246.44;;;21.13;38.03
7962;BME280;4026;43.652;24.906;2023-03-07T12:32:15;98237.84;;;21.13;39.10
7962;BME280;4026;43.652;24.906;2023-03-07T12:34:46;98238.81;;;21.12;40.00
7962;BME280;4026;43.652;24.906;2023-03-07T12:37:20;98236.03;;;21.66;38.13
7962;BME280;4026;43.652;24.906;2023-03-07T12:39:50;98237.41;;;21.76;38.39
7962;BME280;4026;43.652;24.906;2023-03-07T12:42:28;98232.84;;;21.58;38.71
7962;BME280;4026;43.652;24.906;2023-03-07T12:44:57;98228.47;;;21.45;38.21
7962;BME280;4026;43.652;24.906;2023-03-07T12:47:31;98226.41;;;20.80;38.19
7962;BME280;4026;43.652;24.906;2023-03-07T12:50:04;98228.53;;;20.02;38.64
7962;BME280;4026;43.652;24.906;2023-03-07T12:52:39;98229.06;;;19.91;39.79
7962;BME280;4026;43.652;24.906;2023-03-07T12:55:17;98229.22;;;19.83;41.37
7962;BME280;4026;43.652;24.906;2023-03-07T12:57:52;98224.78;;;19.77;40.88
7962;BME280;4026;43.652;24.906;2023-03-07T13:00:21;98224.13;;;19.40;38.77
7962;BME280;4026;43.652;24.906;2023-03-07T13:02:57;98217.09;;;19.62;40.29
7962;BME280;4026;43.652;24.906;2023-03-07T13:05:25;98219.00;;;19.47;40.72
7962;BME280;4026;43.652;24.906;2023-03-07T13:07:53;98217.97;;;19.41;41.01
7962;BME280;4026;43.652;24.906;2023-03-07T13:10:21;98216.88;;;19.29;39.87
7962;BME280;4026;43.652;24.906;2023-03-07T13:12:50;98221.09;;;19.64;40.45
7962;BME280;4026;43.652;24.906;2023-03-07T13:15:44;98217.66;;;19.85;39.44
7962;BME280;4026;43.652;24.906;2023-03-07T13:18:26;98219.75;;;20.03;39.17
7962;BME280;4026;43.652;24.906;2023-03-07T13:21:16;98222.44;;;19.82;40.61
7962;BME280;4026;43.652;24.906;2023-03-07T13:24:30;98224.75;;;19.70;40.79
7962;BME280;4026;43.652;24.906;2023-03-07T13:26:57;98223.41;;;19.25;39.11
7962;BME280;4026;43.652;24.906;2023-03-07T13:32:56;98222.03;;;19.78;39.23
7962;BME280;4026;43.652;24.906;2023-03-07T13:35:53;98217.06;;;19.55;39.94